createdAt,value
2022-11-06T00:06:52.525Z,3.70
2022-11-06T00:13:54.124Z,4.25
2022-11-06T00:20:55.698Z,3.75
2022-11-06T00:27:57.322Z,3.88
2022-11-06T00:34:58.877Z,4.75
2022-11-06T00:42:00.450Z,4.60
2022-11-06T00:49:02.053Z,5.00
2022-11-06T00:56:15.494Z,4.60
2022-11-06T01:03:17.074Z,5.15
2022-11-06T01:10:18.796Z,4.22
2022-11-06T01:17:20.372Z,4.70
2022-11-06T01:24:24.701Z,3.85
2022-11-06T01:31:27.842Z,4.00
2022-11-06T01:38:29.489Z,4.38
2022-11-06T01:45:35.201Z,4.97
2022-11-06T01:52:36.969Z,4.45
2022-11-06T01:59:41.596Z,4.28
2022-11-06T02:06:43.147Z,4.22
2022-11-06T02:13:53.609Z,4.72
2022-11-06T02:21:16.465Z,4.68
2022-11-06T02:28:23.340Z,4.43
2022-11-06T02:35:51.265Z,4.82
2022-11-06T02:42:53.961Z,5.25
2022-11-06T02:50:05.563Z,4.90
2022-11-06T02:57:08.917Z,4.60
2022-11-06T03:04:26.906Z,4.20
2022-11-06T03:11:29.846Z,5.13
2022-11-06T03:18:51.070Z,4.97
2022-11-06T03:25:53.281Z,4.25
2022-11-06T03:33:03.968Z,4.28
2022-11-06T03:47:18.004Z,4.22
2022-11-06T03:54:44.558Z,4.85
2022-11-06T04:01:46.264Z,4.00
2022-11-06T04:09:06.403Z,3.80
2022-11-06T04:16:08.622Z,4.70
2022-11-06T04:23:14.271Z,4.13
2022-11-06T04:30:17.715Z,4.38
2022-11-06T04:37:26.047Z,4.80
2022-11-06T04:44:41.845Z,4.50
2022-11-06T04:51:43.960Z,4.63
2022-11-06T04:58:45.508Z,4.57
2022-11-06T05:05:47.077Z,4.25
2022-11-06T05:12:48.649Z,4.75
2022-11-06T05:19:50.242Z,4.50
2022-11-06T05:26:57.910Z,5.20
2022-11-06T05:34:00.814Z,4.70
2022-11-06T05:41:02.438Z,4.18
2022-11-06T05:48:04.256Z,4.45
2022-11-06T05:55:10.165Z,5.20
2022-11-06T06:02:15.075Z,4.45
2022-11-06T06:09:16.693Z,4.28
2022-11-06T06:16:18.271Z,4.35
2022-11-06T06:23:19.835Z,4.70
2022-11-06T06:30:22.101Z,4.38
2022-11-06T06:37:23.785Z,4.57
2022-11-06T06:44:25.366Z,4.97
2022-11-06T06:51:26.933Z,5.80
2022-11-06T06:58:29.247Z,4.93
2022-11-06T07:05:30.909Z,4.90
2022-11-06T07:12:32.520Z,4.53
2022-11-06T07:19:34.104Z,5.38
2022-11-06T07:26:36.714Z,4.53
2022-11-06T07:33:38.307Z,4.70
2022-11-06T07:40:39.972Z,4.80
2022-11-06T07:47:41.531Z,5.45
2022-11-06T07:54:43.109Z,5.25
2022-11-06T08:01:44.744Z,5.40
2022-11-06T08:08:46.410Z,5.38
2022-11-06T08:15:48.034Z,5.80
2022-11-06T08:22:49.594Z,5.25
2022-11-06T08:29:51.222Z,5.10
2022-11-06T08:36:53.924Z,5.60
2022-11-06T08:43:55.546Z,5.32
2022-11-06T08:50:57.192Z,5.47
2022-11-06T08:57:58.780Z,5.00
2022-11-06T09:05:00.335Z,5.57
2022-11-06T09:12:02.096Z,5.63
2022-11-06T09:19:03.678Z,5.97
2022-11-06T09:26:05.285Z,4.18
2022-11-06T09:33:10.718Z,5.53
2022-11-06T09:40:32.322Z,4.63
2022-11-06T09:47:35.671Z,4.63
2022-11-06T09:54:56.140Z,4.53
2022-11-06T10:02:01.381Z,4.55
2022-11-06T10:09:03.716Z,4.10
2022-11-06T10:16:17.458Z,4.40
2022-11-06T10:24:07.236Z,4.20
2022-11-06T10:31:11.378Z,4.27
2022-11-06T10:38:18.270Z,4.18
2022-11-06T10:45:19.938Z,4.22
2022-11-06T10:52:36.322Z,4.30
2022-11-06T10:59:37.950Z,4.60
2022-11-06T11:06:40.452Z,4.38
2022-11-06T11:13:49.103Z,4.57
2022-11-06T11:21:01.435Z,3.70
2022-11-06T11:28:05.038Z,4.30
2022-11-06T11:35:09.250Z,4.20
2022-11-06T11:42:23.880Z,3.88
2022-11-06T11:49:33.022Z,3.75
2022-11-06T11:57:04.143Z,3.70
2022-11-06T12:03:56.542Z,3.17
2022-11-06T12:11:03.555Z,3.22
2022-11-06T12:18:14.048Z,3.65
2022-11-06T12:25:48.115Z,3.65
2022-11-06T12:33:01.802Z,2.85
2022-11-06T12:40:24.830Z,3.33
2022-11-06T12:47:45.501Z,4.05
2022-11-06T12:54:52.922Z,3.40
2022-11-06T13:02:01.007Z,3.40
2022-11-06T13:09:13.871Z,3.50
2022-11-06T13:16:29.809Z,3.60
2022-11-06T13:23:35.320Z,2.47
2022-11-06T13:30:37.194Z,2.60
2022-11-06T13:37:39.910Z,3.30
2022-11-06T13:44:41.490Z,3.30
2022-11-06T13:52:03.242Z,3.10
2022-11-06T13:59:35.295Z,2.97
2022-11-06T14:06:36.865Z,3.13
2022-11-06T14:13:38.577Z,2.85
2022-11-06T14:20:40.183Z,3.13
2022-11-06T14:27:41.754Z,2.80
2022-11-06T14:34:43.357Z,2.90
2022-11-06T14:41:44.864Z,2.88
2022-11-06T14:48:48.072Z,2.80
2022-11-06T14:56:08.291Z,2.65
2022-11-06T15:03:24.782Z,3.55
2022-11-06T15:10:44.836Z,3.17
2022-11-06T15:17:46.514Z,3.10
2022-11-06T15:24:50.388Z,3.25
2022-11-06T15:32:05.869Z,3.60
2022-11-06T15:39:29.145Z,3.85
2022-11-06T15:46:30.726Z,3.40
2022-11-06T15:53:36.899Z,3.78
2022-11-06T16:00:41.544Z,3.58
2022-11-06T16:07:44.633Z,3.63
2022-11-06T16:14:46.320Z,3.22
2022-11-06T16:21:56.097Z,4.15
2022-11-06T16:28:57.930Z,3.83
2022-11-06T16:36:10.652Z,4.78
2022-11-06T16:43:15.969Z,4.30
2022-11-06T16:50:45.913Z,4.78
2022-11-06T16:57:48.669Z,4.20
2022-11-06T17:04:50.227Z,4.30
2022-11-06T17:11:55.700Z,4.35
2022-11-06T17:18:57.338Z,4.18
2022-11-06T17:26:12.958Z,4.18
2022-11-06T17:33:14.997Z,4.10
2022-11-06T17:40:16.894Z,4.63
2022-11-06T17:47:18.437Z,5.20
2022-11-06T17:54:21.460Z,4.45
2022-11-06T18:01:23.143Z,4.75
2022-11-06T18:08:24.824Z,5.18
2022-11-06T18:15:26.403Z,5.07
2022-11-06T18:22:28.071Z,4.55
2022-11-06T18:29:29.641Z,5.28
2022-11-06T18:36:36.412Z,5.13
2022-11-06T18:43:38.023Z,5.35
2022-11-06T18:50:39.621Z,4.95
2022-11-06T18:57:41.249Z,5.10
2022-11-06T19:04:42.905Z,4.85
2022-11-06T19:11:44.606Z,4.40
2022-11-06T19:18:46.477Z,6.22
2022-11-06T19:25:58.793Z,6.63
2022-11-06T19:33:06.127Z,6.05
2022-11-06T19:40:08.041Z,5.93
2022-11-06T19:47:09.610Z,5.50
2022-11-06T19:54:11.341Z,5.38
2022-11-06T20:01:13.359Z,6.05
2022-11-06T20:08:15.100Z,6.05
2022-11-06T20:15:20.003Z,5.15
2022-11-06T20:22:25.407Z,5.35
2022-11-06T20:29:27.524Z,5.47
2022-11-06T20:36:30.145Z,6.28
2022-11-06T20:43:31.720Z,4.65
2022-11-06T20:50:33.357Z,6.32
2022-11-06T20:57:34.923Z,4.90
2022-11-06T21:04:36.477Z,7.25
2022-11-06T21:11:38.061Z,7.18
2022-11-06T21:18:40.628Z,6.30
2022-11-06T21:25:45.246Z,6.57
2022-11-06T21:32:47.068Z,6.55
2022-11-06T21:39:48.638Z,6.68
2022-11-06T21:46:50.302Z,5.55
2022-11-06T21:54:10.327Z,6.85
2022-11-06T22:01:11.991Z,5.10
2022-11-06T22:08:13.974Z,5.35
2022-11-06T22:15:15.812Z,7.68
2022-11-06T22:22:17.373Z,5.32
2022-11-06T22:29:18.924Z,7.03
2022-11-06T22:36:20.617Z,7.28
2022-11-06T22:43:22.222Z,5.35
2022-11-06T22:50:24.233Z,7.53
2022-11-06T22:57:25.840Z,6.78
2022-11-06T23:04:27.423Z,6.45
2022-11-06T23:11:30.027Z,7.22
2022-11-06T23:18:31.761Z,7.05
2022-11-06T23:25:33.456Z,7.18
2022-11-06T23:32:35.575Z,6.50
2022-11-06T23:39:37.204Z,4.72
2022-11-06T23:46:38.791Z,5.57
2022-11-06T23:53:40.471Z,6.45
